createdAt,value
2018-01-12T00:01:34.508Z,150.50
2018-01-12T00:04:03.086Z,156.03
2018-01-12T00:06:31.740Z,152.83
2018-01-12T00:09:00.895Z,130.97
2018-01-12T00:11:29.278Z,157.43
2018-01-12T00:13:57.834Z,150.83
2018-01-12T00:16:26.238Z,157.47
2018-01-12T00:18:54.629Z,123.83
2018-01-12T00:21:23.107Z,146.00
2018-01-12T00:23:52.241Z,143.33
2018-01-12T00:26:21.386Z,131.67
2018-01-12T00:28:50.361Z,137.30
2018-01-12T00:31:18.742Z,137.60
2018-01-12T00:33:47.156Z,130.40
2018-01-12T00:36:15.964Z,120.63
2018-01-12T00:38:44.400Z,139.37
2018-01-12T00:41:12.851Z,140.33
2018-01-12T00:43:41.486Z,130.23
2018-01-12T00:46:09.913Z,126.00
2018-01-12T00:48:38.323Z,138.50
2018-01-12T00:51:06.865Z,111.33
2018-01-12T00:53:36.958Z,135.23
2018-01-12T00:56:05.366Z,101.40
2018-01-12T00:58:34.710Z,100.87
2018-01-12T01:01:03.098Z,107.47
2018-01-12T01:03:31.481Z,112.80
2018-01-12T01:05:59.926Z,111.17
2018-01-12T01:08:28.311Z,104.33
2018-01-12T01:10:56.702Z,98.50
2018-01-12T01:13:25.199Z,94.37
2018-01-12T01:15:53.592Z,106.37
2018-01-12T01:18:22.535Z,109.03
2018-01-12T01:20:51.083Z,100.30
2018-01-12T01:23:19.459Z,91.93
2018-01-12T01:25:47.828Z,95.30
2018-01-12T01:28:16.352Z,100.50
2018-01-12T01:30:44.816Z,104.00
2018-01-12T01:33:14.004Z,82.50
2018-01-12T01:35:42.416Z,89.70
2018-01-12T01:38:10.803Z,92.83
2018-01-12T01:40:39.171Z,83.27
2018-01-12T01:43:07.920Z,82.70
2018-01-12T01:45:36.319Z,73.17
2018-01-12T01:48:05.491Z,95.83
2018-01-12T01:50:34.187Z,100.40
2018-01-12T01:53:03.342Z,77.17
2018-01-12T01:55:31.921Z,85.57
2018-01-12T01:58:00.672Z,99.63
2018-01-12T02:00:29.075Z,90.90
2018-01-12T02:02:57.459Z,81.10
2018-01-12T02:05:26.190Z,83.57
2018-01-12T02:07:54.631Z,82.43
2018-01-12T02:10:23.008Z,86.67
2018-01-12T02:12:51.422Z,93.20
2018-01-12T02:15:19.790Z,84.37
2018-01-12T02:17:48.172Z,92.87
2018-01-12T02:20:17.179Z,86.13
2018-01-12T02:22:45.558Z,82.23
2018-01-12T02:25:13.939Z,73.83
2018-01-12T02:27:42.681Z,81.23
2018-01-12T02:30:11.054Z,79.20
2018-01-12T02:32:39.593Z,85.00
2018-01-12T02:35:08.919Z,65.40
2018-01-12T02:37:37.298Z,86.47
2018-01-12T02:40:05.701Z,89.13
2018-01-12T02:42:34.193Z,80.90
2018-01-12T02:45:02.625Z,85.53
2018-01-12T02:47:31.773Z,89.10
2018-01-12T02:50:00.384Z,85.57
2018-01-12T02:52:28.768Z,93.50
2018-01-12T02:54:57.145Z,82.27
2018-01-12T02:57:26.950Z,79.50
2018-01-12T02:59:55.322Z,78.67
2018-01-12T03:02:23.687Z,77.37
2018-01-12T03:04:52.867Z,78.37
2018-01-12T03:07:21.242Z,74.60
2018-01-12T03:09:49.638Z,67.47
2018-01-12T03:12:18.055Z,86.27
2018-01-12T03:14:46.428Z,75.37
2018-01-12T03:17:14.801Z,85.37
2018-01-12T03:19:43.377Z,80.87
2018-01-12T03:22:11.809Z,79.00
2018-01-12T03:24:40.188Z,65.70
2018-01-12T03:27:08.933Z,75.97
2018-01-12T03:29:37.332Z,68.43
2018-01-12T03:32:05.743Z,69.63
2018-01-12T03:34:34.533Z,70.43
2018-01-12T03:37:02.912Z,76.40
2018-01-12T03:39:31.301Z,59.30
2018-01-12T03:41:59.719Z,68.30
2018-01-12T03:44:28.123Z,72.17
2018-01-12T03:46:57.562Z,68.30
2018-01-12T03:49:26.050Z,64.87
2018-01-12T03:51:54.435Z,67.27
2018-01-12T03:54:22.813Z,69.13
2018-01-12T03:56:51.619Z,67.73
2018-01-12T03:59:20.335Z,62.10
2018-01-12T04:01:49.479Z,58.50
2018-01-12T04:04:19.111Z,67.00
2018-01-12T04:06:47.494Z,60.97
2018-01-12T04:09:15.871Z,51.87
2018-01-12T04:11:44.358Z,62.10
2018-01-12T04:14:13.645Z,58.73
2018-01-12T04:16:42.033Z,59.83
2018-01-12T04:19:10.742Z,64.50
2018-01-12T04:21:39.908Z,65.27
2018-01-12T04:24:08.326Z,56.30
2018-01-12T04:26:36.979Z,60.17
2018-01-12T04:29:05.344Z,62.23
2018-01-12T04:31:33.721Z,58.17
2018-01-12T04:34:02.514Z,53.37
2018-01-12T04:36:31.205Z,61.23
2018-01-12T04:38:59.587Z,57.50
2018-01-12T04:41:28.160Z,54.07
2018-01-12T04:43:56.561Z,57.90
2018-01-12T04:46:24.941Z,62.70
2018-01-12T04:48:54.655Z,57.80
2018-01-12T04:51:23.793Z,65.47
2018-01-12T04:53:52.170Z,54.40
2018-01-12T04:56:20.805Z,66.83
2018-01-12T04:58:49.193Z,58.33
2018-01-12T05:01:18.813Z,64.87
2018-01-12T05:03:48.005Z,61.87
2018-01-12T05:06:17.171Z,54.67
2018-01-12T05:08:45.554Z,55.43
2018-01-12T05:11:14.066Z,51.73
2018-01-12T05:13:43.236Z,37.27
2018-01-12T05:16:11.623Z,44.17
2018-01-12T05:18:40.182Z,35.67
2018-01-12T05:21:08.555Z,47.47
2018-01-12T05:23:36.938Z,47.77
2018-01-12T05:26:05.741Z,41.50
2018-01-12T05:28:34.128Z,45.80
2018-01-12T05:31:02.522Z,36.50
2018-01-12T05:33:31.952Z,43.97
2018-01-12T05:36:00.323Z,46.10
2018-01-12T05:38:28.767Z,40.80
2018-01-12T05:40:57.176Z,38.80
2018-01-12T05:43:25.581Z,38.60
2018-01-12T05:45:53.981Z,45.13
2018-01-12T05:48:22.496Z,38.47
2018-01-12T05:50:50.951Z,52.40
2018-01-12T05:53:19.331Z,41.13
2018-01-12T05:55:48.308Z,28.43
2018-01-12T05:58:16.684Z,27.37
2018-01-12T06:03:59.075Z,32.60
2018-01-12T06:06:27.513Z,32.23
2018-01-12T06:08:56.384Z,32.23
2018-01-12T06:11:25.074Z,31.00
2018-01-12T06:13:53.779Z,27.07
2018-01-12T06:16:22.163Z,28.30
2018-01-12T06:18:50.554Z,32.33
2018-01-12T06:21:19.766Z,27.00
2018-01-12T06:23:48.921Z,29.60
2018-01-12T06:26:17.297Z,23.47
2018-01-12T06:28:45.825Z,30.83
2018-01-12T06:31:14.217Z,28.03
2018-01-12T06:33:42.598Z,28.67
2018-01-12T06:36:11.444Z,33.23
2018-01-12T06:38:39.855Z,33.90
2018-01-12T06:41:09.019Z,31.10
2018-01-12T06:43:37.552Z,30.73
2018-01-12T06:46:05.962Z,26.93
2018-01-12T06:48:34.369Z,25.53
2018-01-12T06:51:03.152Z,29.40
2018-01-12T06:53:31.532Z,29.50
2018-01-12T06:55:59.913Z,26.47
2018-01-12T06:58:28.482Z,28.37
2018-01-12T07:00:56.907Z,33.00
2018-01-12T07:03:25.288Z,35.63
2018-01-12T07:05:53.931Z,27.43
2018-01-12T07:08:22.315Z,28.50
2018-01-12T07:10:50.687Z,38.63
2018-01-12T07:13:19.382Z,43.00
2018-01-12T07:15:47.769Z,32.70
2018-01-12T07:18:16.913Z,43.13
2018-01-12T07:20:57.293Z,32.60
2018-01-12T07:23:48.567Z,35.93
2018-01-12T07:26:17.029Z,37.63
2018-01-12T07:28:46.210Z,43.70
2018-01-12T07:31:14.617Z,42.50
2018-01-12T07:33:43.055Z,41.00
2018-01-12T07:36:11.444Z,44.87
2018-01-12T07:38:39.825Z,41.97
2018-01-12T07:41:09.112Z,41.37
2018-01-12T07:43:37.487Z,49.87
2018-01-12T07:46:06.170Z,46.13
2018-01-12T07:48:34.796Z,45.77
2018-01-12T07:51:03.540Z,46.27
2018-01-12T07:53:31.931Z,38.97
2018-01-12T07:56:00.371Z,40.80
2018-01-12T07:58:28.867Z,39.60
2018-01-12T08:04:05.587Z,39.93
2018-01-12T08:06:34.978Z,40.03
2018-01-12T08:09:03.478Z,40.40
2018-01-12T08:11:31.941Z,43.47
2018-01-12T08:14:00.559Z,44.20
2018-01-12T08:16:29.719Z,35.87
2018-01-12T08:18:58.090Z,46.07
2018-01-12T08:21:26.552Z,38.47
2018-01-12T08:23:54.948Z,39.57
2018-01-12T08:26:23.340Z,44.37
2018-01-12T08:28:52.122Z,42.10
2018-01-12T08:31:20.523Z,47.70
2018-01-12T08:33:48.995Z,40.13
2018-01-12T08:36:17.580Z,47.33
2018-01-12T08:38:46.151Z,47.87
2018-01-12T08:41:14.528Z,60.43
2018-01-12T08:43:43.155Z,47.73
2018-01-12T08:46:12.347Z,63.00
2018-01-12T08:48:41.614Z,46.73
2018-01-12T08:51:10.347Z,33.30
2018-01-12T08:53:38.721Z,44.53
2018-01-12T08:56:07.894Z,43.87
2018-01-12T08:58:36.873Z,41.37
2018-01-12T09:01:05.278Z,43.50
2018-01-12T09:03:34.458Z,52.37
2018-01-12T09:06:03.677Z,40.57
2018-01-12T09:08:33.157Z,41.03
2018-01-12T09:11:01.656Z,39.50
2018-01-12T09:13:42.037Z,42.70
2018-01-12T09:16:11.228Z,43.33
2018-01-12T09:21:42.419Z,46.00
2018-01-12T09:24:22.331Z,48.23
2018-01-12T09:26:51.529Z,47.63
2018-01-12T09:29:20.707Z,40.37
2018-01-12T09:31:51.304Z,37.83
2018-01-12T09:34:31.416Z,42.40
2018-01-12T09:37:00.784Z,42.00
2018-01-12T09:39:47.848Z,43.60
2018-01-12T09:42:16.806Z,44.20
2018-01-12T09:44:45.198Z,44.63
2018-01-12T09:47:22.307Z,52.60
2018-01-12T09:49:50.741Z,44.83
2018-01-12T09:52:19.129Z,52.83
2018-01-12T09:54:47.561Z,47.43
2018-01-12T09:57:15.973Z,48.67
2018-01-12T09:59:44.388Z,53.50
2018-01-12T10:02:13.717Z,45.13
2018-01-12T10:04:42.318Z,55.93
2018-01-12T10:07:20.313Z,72.07
2018-01-12T10:09:49.037Z,64.03
2018-01-12T10:12:17.436Z,85.20
2018-01-12T10:14:46.867Z,73.80
2018-01-12T10:17:15.263Z,71.30
2018-01-12T10:20:02.756Z,71.20
2018-01-12T10:22:31.948Z,84.03
2018-01-12T10:25:01.552Z,79.80
2018-01-12T10:27:30.756Z,91.03
2018-01-12T10:29:59.911Z,76.07
2018-01-12T10:32:45.426Z,66.17
2018-01-12T10:35:19.570Z,68.93
2018-01-12T10:37:48.523Z,92.43
2018-01-12T10:40:28.857Z,80.53
2018-01-12T10:42:57.669Z,73.57
2018-01-12T10:45:26.376Z,77.50
2018-01-12T10:48:01.588Z,83.53
2018-01-12T10:50:41.745Z,75.33
2018-01-12T10:53:10.432Z,82.20
2018-01-12T10:55:38.894Z,92.47
2018-01-12T10:58:07.309Z,66.63
2018-01-12T11:00:36.680Z,72.83
2018-01-12T11:03:05.053Z,63.47
2018-01-12T11:05:33.433Z,65.90
2018-01-12T11:08:01.953Z,74.87
2018-01-12T11:10:30.445Z,73.17
2018-01-12T11:12:58.834Z,79.03
2018-01-12T11:15:27.698Z,66.83
2018-01-12T11:17:56.900Z,79.47
2018-01-12T11:20:26.144Z,77.87
2018-01-12T11:22:54.579Z,80.13
2018-01-12T11:25:22.992Z,69.90
2018-01-12T11:27:51.437Z,73.87
2018-01-12T11:30:20.806Z,70.70
2018-01-12T11:32:49.482Z,74.97
2018-01-12T11:35:17.880Z,73.07
2018-01-12T11:37:46.593Z,77.30
2018-01-12T11:40:14.996Z,70.57
2018-01-12T11:42:43.383Z,75.27
2018-01-12T11:45:11.916Z,71.37
2018-01-12T11:47:40.324Z,71.13
2018-01-12T11:50:08.703Z,70.90
2018-01-12T11:52:37.443Z,63.13
2018-01-12T11:55:05.878Z,61.90
2018-01-12T11:57:34.520Z,60.47
2018-01-12T12:00:03.109Z,61.27
2018-01-12T12:02:31.490Z,58.00
2018-01-12T12:04:59.904Z,59.07
2018-01-12T12:07:28.423Z,66.27
2018-01-12T12:09:56.855Z,60.63
2018-01-12T12:12:25.767Z,66.33
2018-01-12T12:14:54.431Z,63.47
2018-01-12T12:17:22.854Z,65.97
2018-01-12T12:19:51.240Z,71.50
2018-01-12T12:22:19.866Z,77.33
2018-01-12T12:24:49.018Z,62.27
2018-01-12T12:27:17.438Z,75.20
2018-01-12T12:29:46.805Z,63.73
2018-01-12T12:32:15.187Z,72.50
2018-01-12T12:34:43.584Z,70.43
2018-01-12T12:37:12.884Z,68.77
2018-01-12T12:39:41.302Z,69.63
2018-01-12T12:42:09.697Z,75.03
2018-01-12T12:44:38.555Z,65.23
2018-01-12T12:47:07.924Z,65.90
2018-01-12T12:49:36.319Z,63.30
2018-01-12T12:52:05.557Z,75.77
2018-01-12T12:54:34.729Z,56.90
2018-01-12T12:57:04.864Z,61.43
2018-01-12T12:59:34.374Z,62.93
2018-01-12T13:02:02.757Z,52.80
2018-01-12T13:04:31.178Z,62.67
2018-01-12T13:06:59.716Z,56.27
2018-01-12T13:09:28.105Z,57.97
2018-01-12T13:11:56.946Z,67.30
2018-01-12T13:14:27.213Z,56.97
2018-01-12T13:16:55.605Z,74.03
2018-01-12T13:19:24.007Z,72.67
2018-01-12T13:21:52.435Z,64.20
2018-01-12T13:24:20.950Z,57.83
2018-01-12T13:26:51.137Z,72.93
2018-01-12T13:29:21.074Z,68.83
2018-01-12T13:31:50.364Z,69.40
2018-01-12T13:34:18.750Z,66.13
2018-01-12T13:36:47.409Z,71.63
2018-01-12T13:39:16.568Z,60.73
2018-01-12T13:41:44.984Z,66.90
2018-01-12T13:44:13.504Z,65.43
2018-01-12T13:46:41.923Z,69.30
2018-01-12T13:49:10.350Z,66.90
2018-01-12T13:51:40.070Z,72.70
2018-01-12T13:54:09.309Z,70.00
2018-01-12T13:56:37.705Z,70.40
2018-01-12T13:59:07.231Z,73.30
2018-01-12T14:01:35.750Z,76.47
2018-01-12T14:04:04.215Z,76.00
2018-01-12T14:06:32.879Z,85.40
2018-01-12T14:09:01.296Z,81.50
2018-01-12T14:11:29.700Z,76.73
2018-01-12T14:13:58.493Z,69.47
2018-01-12T14:16:27.762Z,68.43
2018-01-12T14:18:56.187Z,76.83
2018-01-12T14:21:25.388Z,75.83
2018-01-12T14:23:54.545Z,80.83
2018-01-12T14:26:22.995Z,88.70
2018-01-12T14:28:51.538Z,77.10
2018-01-12T14:31:20.734Z,66.63
2018-01-12T14:33:49.954Z,67.80
2018-01-12T14:36:18.684Z,77.90
2018-01-12T14:38:47.113Z,82.87
2018-01-12T14:41:15.528Z,80.77
2018-01-12T14:43:43.958Z,79.70
2018-01-12T14:46:13.966Z,69.73
2018-01-12T14:48:42.450Z,73.73
2018-01-12T14:51:12.072Z,83.10
2018-01-12T14:53:41.398Z,74.87
2018-01-12T14:56:09.794Z,72.00
2018-01-12T14:58:38.295Z,78.20
2018-01-12T15:01:06.673Z,78.57
2018-01-12T15:03:35.090Z,67.10
2018-01-12T15:06:04.440Z,64.30
2018-01-12T15:08:32.830Z,82.77
2018-01-12T15:11:02.140Z,75.57
2018-01-12T15:13:30.730Z,68.03
2018-01-12T15:15:59.195Z,71.67
2018-01-12T15:18:27.794Z,63.00
2018-01-12T15:20:56.220Z,76.97
2018-01-12T15:23:24.643Z,75.40
2018-01-12T15:25:53.031Z,72.07
2018-01-12T15:28:21.574Z,65.70
2018-01-12T15:30:49.952Z,66.63
2018-01-12T15:33:18.344Z,66.87
2018-01-12T15:35:46.774Z,67.30
2018-01-12T15:38:15.962Z,67.03
2018-01-12T15:40:44.619Z,68.13
2018-01-12T15:43:13.103Z,63.80
2018-01-12T15:45:41.511Z,73.67
2018-01-12T15:48:10.660Z,76.67
2018-01-12T15:50:39.164Z,58.83
2018-01-12T15:53:07.601Z,65.67
2018-01-12T15:55:35.998Z,76.10
2018-01-12T15:58:04.529Z,70.20
2018-01-12T16:00:33.751Z,61.07
2018-01-12T16:03:02.140Z,69.50
2018-01-12T16:05:30.635Z,72.53
2018-01-12T16:07:59.027Z,62.77
2018-01-12T16:10:27.446Z,75.37
2018-01-12T16:12:56.639Z,68.20
2018-01-12T16:15:25.016Z,65.33
2018-01-12T16:17:53.415Z,57.50
2018-01-12T16:20:22.201Z,66.07
2018-01-12T16:22:51.385Z,70.33
2018-01-12T16:25:20.547Z,67.33
2018-01-12T16:27:49.140Z,72.10
2018-01-12T16:30:17.601Z,70.67
2018-01-12T16:32:45.984Z,67.67
2018-01-12T16:35:14.612Z,67.00
2018-01-12T16:37:43.814Z,67.63
2018-01-12T16:40:12.967Z,72.87
2018-01-12T16:42:41.692Z,63.00
2018-01-12T16:45:10.841Z,65.60
2018-01-12T16:47:39.227Z,67.97
2018-01-12T16:50:07.798Z,69.63
2018-01-12T16:52:36.185Z,68.17
2018-01-12T16:55:04.626Z,76.60
2018-01-12T16:57:33.806Z,72.10
2018-01-12T17:00:02.997Z,70.63
2018-01-12T17:02:32.153Z,83.57
2018-01-12T17:05:00.602Z,69.67
2018-01-12T17:07:28.994Z,68.33
2018-01-12T17:09:57.369Z,67.67
2018-01-12T17:12:25.914Z,73.33
2018-01-12T17:14:54.322Z,71.20
2018-01-12T17:17:23.630Z,67.67
2018-01-12T17:19:52.596Z,71.87
2018-01-12T17:22:22.049Z,65.57
2018-01-12T17:24:50.439Z,77.43
2018-01-12T17:27:18.994Z,67.53
2018-01-12T17:29:47.388Z,70.73
2018-01-12T17:32:15.804Z,64.20
2018-01-12T17:34:44.330Z,70.73
2018-01-12T17:37:12.713Z,68.10
2018-01-12T17:39:41.104Z,69.20
2018-01-12T17:42:09.839Z,73.23
2018-01-12T17:44:38.280Z,75.57
2018-01-12T17:47:06.670Z,65.90
2018-01-12T17:49:35.187Z,66.30
2018-01-12T17:52:04.424Z,64.40
2018-01-12T17:54:32.808Z,73.00
2018-01-12T17:57:01.556Z,70.37
2018-01-12T17:59:30.694Z,80.43
2018-01-12T18:01:59.124Z,64.03
2018-01-12T18:04:27.634Z,65.30
2018-01-12T18:06:56.344Z,72.47
2018-01-12T18:09:24.764Z,60.80
2018-01-12T18:11:53.493Z,74.50
2018-01-12T18:14:21.910Z,81.30
2018-01-12T18:16:50.317Z,73.40
2018-01-12T18:19:19.674Z,75.63
2018-01-12T18:21:48.105Z,74.87
2018-01-12T18:24:17.962Z,67.57
2018-01-12T18:26:46.399Z,78.37
2018-01-12T18:29:15.562Z,70.60
2018-01-12T18:31:43.954Z,74.80
2018-01-12T18:34:12.408Z,68.03
2018-01-12T18:36:40.826Z,72.87
2018-01-12T18:39:10.001Z,73.40
2018-01-12T18:41:38.513Z,69.30
2018-01-12T18:44:07.729Z,65.63
2018-01-12T18:46:36.181Z,66.13
2018-01-12T18:49:05.570Z,71.10
2018-01-12T18:51:34.026Z,60.47
2018-01-12T18:54:02.399Z,66.37
2018-01-12T18:56:30.836Z,79.87
2018-01-12T18:59:00.058Z,86.30
2018-01-12T19:01:28.491Z,62.37
2018-01-12T19:03:57.079Z,71.00
2018-01-12T19:06:25.580Z,69.93
2018-01-12T19:08:54.743Z,79.87
2018-01-12T19:11:23.363Z,68.30
2018-01-12T19:13:52.527Z,59.70
2018-01-12T19:16:20.935Z,78.73
2018-01-12T19:18:50.343Z,68.40
2018-01-12T19:21:19.509Z,79.33
2018-01-12T19:23:47.930Z,70.70
2018-01-12T19:26:16.598Z,72.73
2018-01-12T19:28:45.748Z,72.33
2018-01-12T19:31:14.152Z,65.87
2018-01-12T19:33:42.738Z,82.67
2018-01-12T19:36:12.273Z,78.63
2018-01-12T19:38:40.651Z,82.00
2018-01-12T19:41:09.854Z,70.90
2018-01-12T19:43:38.254Z,80.70
2018-01-12T19:46:06.632Z,81.30
2018-01-12T19:48:35.168Z,80.60
2018-01-12T19:51:03.552Z,76.80
2018-01-12T19:53:32.728Z,81.70
2018-01-12T19:56:01.369Z,77.93
2018-01-12T19:58:29.758Z,84.00
2018-01-12T20:00:58.261Z,71.23
2018-01-12T20:03:26.691Z,70.60
2018-01-12T20:05:55.841Z,72.83
2018-01-12T20:08:24.249Z,75.10
2018-01-12T20:10:53.450Z,74.80
2018-01-12T20:13:23.431Z,81.80
2018-01-12T20:15:51.833Z,82.17
2018-01-12T20:18:20.511Z,70.53
2018-01-12T20:20:48.898Z,69.83
2018-01-12T20:23:17.381Z,74.60
2018-01-12T20:25:46.630Z,73.07
2018-01-12T20:28:15.350Z,59.80
2018-01-12T20:30:43.763Z,65.60
2018-01-12T20:33:13.005Z,71.93
2018-01-12T20:35:41.395Z,70.77
2018-01-12T20:38:09.798Z,64.90
2018-01-12T20:40:38.650Z,63.13
2018-01-12T20:43:07.073Z,67.97
2018-01-12T20:45:35.457Z,63.20
2018-01-12T20:48:04.951Z,53.33
2018-01-12T20:50:33.379Z,56.70
2018-01-12T20:53:01.759Z,54.73
2018-01-12T20:55:30.205Z,55.43
2018-01-12T20:57:59.365Z,71.83
2018-01-12T21:00:27.788Z,58.30
2018-01-12T21:02:57.026Z,75.63
2018-01-12T21:05:26.215Z,65.87
2018-01-12T21:07:54.607Z,70.17
2018-01-12T21:10:23.151Z,67.83
2018-01-12T21:12:51.572Z,67.40
2018-01-12T21:15:20.202Z,60.67
2018-01-12T21:17:49.557Z,62.20
2018-01-12T21:20:17.947Z,66.57
2018-01-12T21:22:46.369Z,75.37
2018-01-12T21:25:15.574Z,63.80
2018-01-12T21:27:44.006Z,72.67
2018-01-12T21:30:12.702Z,62.43
2018-01-12T21:32:41.204Z,63.60
2018-01-12T21:35:10.417Z,70.40
2018-01-12T21:37:39.625Z,65.97
2018-01-12T21:40:08.197Z,68.47
2018-01-12T21:42:37.408Z,68.00
2018-01-12T21:45:05.847Z,70.70
2018-01-12T21:47:34.354Z,78.53
2018-01-12T21:50:03.593Z,78.23
2018-01-12T21:52:32.049Z,75.77
2018-01-12T21:55:00.676Z,83.40
2018-01-12T21:57:29.103Z,74.83
2018-01-12T21:59:57.539Z,68.53
2018-01-12T22:02:26.013Z,75.60
2018-01-12T22:04:54.571Z,70.30
2018-01-12T22:07:22.994Z,73.97
2018-01-12T22:09:51.714Z,70.63
2018-01-12T22:12:20.163Z,71.20
2018-01-12T22:14:48.594Z,80.57
2018-01-12T22:17:17.104Z,69.07
2018-01-12T22:19:45.538Z,75.17
2018-01-12T22:22:13.994Z,71.30
2018-01-12T22:24:42.494Z,71.60
2018-01-12T22:27:11.702Z,82.80
2018-01-12T22:29:40.224Z,74.30
2018-01-12T22:32:09.009Z,72.63
2018-01-12T22:34:37.422Z,75.20
2018-01-12T22:37:05.837Z,69.13
2018-01-12T22:39:34.518Z,67.73
2018-01-12T22:42:02.996Z,72.60
2018-01-12T22:44:31.438Z,74.90
2018-01-12T22:47:00.034Z,65.80
2018-01-12T22:49:29.263Z,67.43
2018-01-12T22:51:57.725Z,61.63
2018-01-12T22:54:27.243Z,77.23
2018-01-12T22:56:55.671Z,75.43
2018-01-12T22:59:24.124Z,78.73
2018-01-12T23:01:52.882Z,81.30
2018-01-12T23:04:22.086Z,68.57
2018-01-12T23:06:50.561Z,77.57
2018-01-12T23:09:19.958Z,77.77
2018-01-12T23:11:49.138Z,86.53
2018-01-12T23:14:17.556Z,82.13
2018-01-12T23:16:46.176Z,86.07
2018-01-12T23:19:14.964Z,79.70
2018-01-12T23:21:43.405Z,70.70
2018-01-12T23:24:11.984Z,72.87
2018-01-12T23:26:40.413Z,76.13
2018-01-12T23:29:08.862Z,80.87
2018-01-12T23:31:37.394Z,87.33
2018-01-12T23:34:05.988Z,84.73
2018-01-12T23:36:35.216Z,82.33
2018-01-12T23:39:03.912Z,73.90
2018-01-12T23:41:32.349Z,73.27
2018-01-12T23:44:00.844Z,71.70
2018-01-12T23:46:30.243Z,71.57
2018-01-12T23:48:59.447Z,71.23
2018-01-12T23:51:28.668Z,71.20
2018-01-12T23:53:57.334Z,67.20
2018-01-12T23:56:26.566Z,71.60
2018-01-12T23:58:54.994Z,75.40
